createdAt,value
2022-10-22T06:26:02.885Z,101475.22
2022-10-22T06:28:30.227Z,101461.00
2022-10-22T06:31:02.141Z,101471.22
2022-10-22T06:33:31.690Z,101483.72
2022-10-22T06:36:09.257Z,101487.34
2022-10-22T06:38:36.394Z,101472.78
2022-10-22T06:41:12.582Z,101496.75
2022-10-22T06:43:40.894Z,101495.94
2022-10-22T06:46:14.837Z,101477.22
2022-10-22T06:48:49.468Z,101473.91
2022-10-22T06:51:16.881Z,101489.72
2022-10-22T06:53:44.027Z,101488.53
2022-10-22T06:56:14.218Z,101495.78
2022-10-22T06:58:42.358Z,101497.88
2022-10-22T07:01:12.416Z,101507.72
2022-10-22T07:03:40.928Z,101507.72
2022-10-22T07:06:10.927Z,101502.34
2022-10-22T07:08:39.000Z,101491.34
2022-10-22T07:11:09.669Z,101501.16
2022-10-22T07:13:36.991Z,101497.34
2022-10-22T07:16:05.562Z,101529.38
2022-10-22T07:18:33.677Z,101527.78
2022-10-22T07:21:01.424Z,101515.63
2022-10-22T07:23:29.581Z,101515.91
2022-10-22T07:26:06.387Z,101525.28
2022-10-22T07:28:35.362Z,101533.91
2022-10-22T07:31:02.992Z,101528.91
2022-10-22T07:33:30.176Z,101535.44
2022-10-22T07:36:02.301Z,101565.13
2022-10-22T07:38:30.060Z,101567.25
2022-10-22T07:40:57.661Z,101567.69
2022-10-22T07:43:25.208Z,101583.66
2022-10-22T07:45:55.466Z,101568.28
2022-10-22T07:48:24.160Z,101556.97
2022-10-22T07:50:52.219Z,101590.78
2022-10-22T07:53:24.963Z,101565.63
2022-10-22T07:55:58.584Z,101580.19
2022-10-22T07:58:26.136Z,101591.53
2022-10-22T08:00:57.704Z,101569.25
2022-10-22T08:03:25.115Z,101585.91
2022-10-22T08:05:52.537Z,101580.19
2022-10-22T08:08:25.889Z,101574.97
2022-10-22T08:10:59.198Z,101581.75
2022-10-22T08:13:27.961Z,101576.00
2022-10-22T08:30:30.629Z,101587.16
2022-10-22T08:33:49.740Z,101593.53
2022-10-22T08:46:28.475Z,101604.41
2022-10-22T08:49:03.593Z,101609.66
2022-10-22T08:51:42.401Z,101581.31
2022-10-22T09:03:28.647Z,101625.13
2022-10-22T09:06:22.100Z,101612.34
2022-10-22T09:12:43.185Z,101589.03
2022-10-22T09:39:28.847Z,101600.88
2022-10-22T09:43:00.709Z,101618.41
2022-10-22T09:46:21.107Z,101619.50
2022-10-22T09:49:56.785Z,101613.09
2022-10-22T09:53:17.068Z,101597.38
2022-10-22T09:56:54.318Z,101599.84
2022-10-22T10:00:40.076Z,101633.94
2022-10-22T10:09:01.077Z,101644.91
2022-10-22T10:12:18.385Z,101610.03
2022-10-22T10:18:55.906Z,101642.94
2022-10-22T10:25:40.297Z,101640.63
2022-10-22T10:28:46.724Z,101621.16
2022-10-22T10:31:48.195Z,101652.53
2022-10-22T10:34:40.029Z,101623.69
2022-10-22T10:37:12.178Z,101645.78
2022-10-22T10:40:18.311Z,101637.75
2022-10-22T10:43:17.830Z,101613.81
2022-10-22T10:46:36.928Z,101644.13
2022-10-22T10:49:15.180Z,101641.41
2022-10-22T10:51:59.541Z,101637.97
2022-10-22T10:55:02.885Z,101616.06
2022-10-22T10:57:51.857Z,101638.50
2022-10-22T11:00:20.875Z,101634.88
2022-10-22T11:03:30.090Z,101616.75
2022-10-22T11:06:25.577Z,101621.75
2022-10-22T11:09:16.319Z,101619.06
2022-10-22T11:11:58.598Z,101615.38
2022-10-22T11:14:36.492Z,101592.47
2022-10-22T11:17:11.015Z,101616.81
2022-10-22T11:19:59.928Z,101598.78
2022-10-22T11:22:34.597Z,101608.88
2022-10-22T11:25:14.006Z,101601.09
2022-10-22T11:28:19.865Z,101605.88
2022-10-22T11:30:54.123Z,101602.63
2022-10-22T11:33:30.839Z,101606.84
2022-10-22T11:36:01.839Z,101612.19
2022-10-22T11:38:44.282Z,101585.38
2022-10-22T11:41:21.574Z,101595.66
2022-10-22T11:44:08.394Z,101589.16
2022-10-22T11:51:20.015Z,101593.16
2022-10-22T11:53:15.215Z,101570.44
2022-10-22T11:56:32.476Z,101550.59
2022-10-22T12:36:49.933Z,101528.06
2022-10-22T12:39:27.290Z,101536.09
2022-10-22T12:42:05.131Z,101517.13
2022-10-22T12:44:55.556Z,101511.13
2022-10-22T12:47:32.068Z,101541.66
2022-10-22T12:49:59.446Z,101509.38
2022-10-22T12:52:31.555Z,101528.78
2022-10-22T12:55:00.661Z,101551.47
2022-10-22T12:57:33.424Z,101534.03
2022-10-22T13:00:04.628Z,101515.19
2022-10-22T13:02:33.098Z,101512.84
2022-10-22T13:05:21.344Z,101542.81
2022-10-22T13:07:54.755Z,101544.22
2022-10-22T13:10:31.227Z,101538.22
2022-10-22T13:12:59.311Z,101519.44
2022-10-22T13:15:32.815Z,101540.84
2022-10-22T13:18:17.219Z,101530.00
2022-10-22T13:20:54.968Z,101514.56
2022-10-22T13:23:25.550Z,101530.91
2022-10-22T13:26:09.672Z,101507.00
2022-10-22T13:28:36.857Z,101510.47
2022-10-22T13:31:15.975Z,101516.28
2022-10-22T13:33:46.017Z,101506.72
2022-10-22T13:36:17.472Z,101506.81
2022-10-22T13:38:45.275Z,101490.47
2022-10-22T13:41:22.774Z,101505.34
2022-10-22T13:43:50.653Z,101498.47
2022-10-22T13:46:18.366Z,101479.09
2022-10-22T13:48:47.131Z,101508.22
2022-10-22T13:51:21.842Z,101482.09
2022-10-22T13:53:51.792Z,101500.81
2022-10-22T13:56:21.848Z,101464.56
2022-10-22T13:58:49.212Z,101474.34
2022-10-22T14:01:23.671Z,101501.50
2022-10-22T14:03:54.075Z,101474.53
2022-10-22T14:06:24.685Z,101491.59
2022-10-22T14:08:58.721Z,101501.25
2022-10-22T14:11:31.694Z,101498.78
2022-10-22T14:13:59.649Z,101474.66
2022-10-22T14:16:29.146Z,101495.28
2022-10-22T14:18:56.933Z,101497.38
2022-10-22T14:21:24.294Z,101497.06
2022-10-22T14:23:54.891Z,101473.59
2022-10-22T14:26:33.364Z,101496.63
2022-10-22T14:29:09.347Z,101501.09
2022-10-22T14:34:07.288Z,101477.41
2022-10-22T14:36:34.418Z,101466.97
2022-10-22T14:39:17.989Z,101487.25
2022-10-22T14:41:48.688Z,101475.19
2022-10-22T14:44:15.856Z,101488.84
2022-10-22T14:46:44.563Z,101474.34
2022-10-22T14:49:11.938Z,101474.81
2022-10-22T14:51:39.481Z,101489.56
2022-10-22T14:54:06.707Z,101482.47
2022-10-22T14:56:33.955Z,101460.81
2022-10-22T14:59:01.239Z,101463.69
2022-10-22T15:01:28.443Z,101483.13
2022-10-22T15:03:55.502Z,101461.88
2022-10-22T15:06:22.695Z,101468.88
2022-10-22T15:08:49.949Z,101466.50
2022-10-22T15:11:17.326Z,101485.94
2022-10-22T15:13:44.855Z,101494.88
2022-10-22T15:16:13.800Z,101481.56
2022-10-22T15:18:41.062Z,101479.94
2022-10-22T15:21:18.931Z,101481.19
2022-10-22T15:23:46.464Z,101490.06
2022-10-22T15:26:16.187Z,101468.59
2022-10-22T15:28:43.567Z,101459.69
2022-10-22T15:31:15.832Z,101458.06
2022-10-22T15:33:44.043Z,101481.91
2022-10-22T15:36:16.823Z,101468.09
2022-10-22T15:38:46.333Z,101476.19
2022-10-22T15:41:13.925Z,101459.59
2022-10-22T15:43:41.219Z,101478.13
2022-10-22T15:46:14.685Z,101492.25
2022-10-22T15:48:42.295Z,101492.56
2022-10-22T15:51:18.200Z,101477.94
2022-10-22T15:53:54.055Z,101466.91
2022-10-22T15:56:23.401Z,101476.59
2022-10-22T15:59:06.218Z,101484.72
2022-10-22T16:01:35.284Z,101461.94
2022-10-22T16:04:05.679Z,101497.13
2022-10-22T16:06:41.399Z,101476.00
2022-10-22T16:09:13.942Z,101491.78
2022-10-22T16:11:42.254Z,101508.28
2022-10-22T16:14:17.014Z,101483.59
2022-10-22T16:16:48.283Z,101477.88
2022-10-22T16:19:21.303Z,101472.91
2022-10-22T16:21:53.873Z,101468.84
2022-10-22T16:24:22.096Z,101466.38
2022-10-22T16:26:50.059Z,101486.56
2022-10-22T16:29:17.457Z,101468.72
2022-10-22T16:31:51.867Z,101493.78
2022-10-22T16:34:38.189Z,101478.72
2022-10-22T16:37:17.351Z,101483.97
2022-10-22T16:39:47.405Z,101500.94
2022-10-22T16:42:15.011Z,101501.63
2022-10-22T16:44:43.778Z,101495.47
2022-10-22T16:47:14.928Z,101497.44
2022-10-22T17:00:32.279Z,101500.97
2022-10-22T17:03:01.641Z,101495.63
2022-10-22T17:05:33.497Z,101532.06
2022-10-22T17:24:44.738Z,101520.47
2022-10-22T17:29:55.860Z,101514.72
2022-10-22T17:32:27.858Z,101548.44
2022-10-22T17:35:11.264Z,101518.75
2022-10-22T17:47:01.909Z,101553.91
2022-10-22T17:52:44.227Z,101552.56
2022-10-22T17:55:34.681Z,101557.41
2022-10-22T17:58:39.198Z,101558.25
2022-10-22T18:01:07.054Z,101542.66
2022-10-22T18:04:33.326Z,101545.13
2022-10-22T18:07:05.677Z,101552.34
2022-10-22T18:09:36.122Z,101545.56
2022-10-22T18:12:03.664Z,101552.53
2022-10-22T18:14:33.450Z,101560.28
2022-10-22T18:17:06.015Z,101549.22
2022-10-22T18:19:48.967Z,101534.53
2022-10-22T18:22:23.782Z,101554.78
2022-10-22T18:24:57.611Z,101548.59
2022-10-22T18:27:26.237Z,101569.25
2022-10-22T18:29:53.341Z,101571.25
2022-10-22T18:32:47.867Z,101607.22
2022-10-22T18:35:54.721Z,101565.84
2022-10-22T18:39:02.160Z,101606.34
2022-10-22T18:47:21.194Z,101614.31
2022-10-22T19:19:26.011Z,101609.88
2022-10-22T19:23:29.088Z,101613.19
2022-10-22T19:24:44.480Z,101633.97
2022-10-22T19:27:54.101Z,101614.44
2022-10-22T19:30:30.919Z,101627.59
2022-10-22T19:35:46.855Z,101623.41
2022-10-22T19:38:14.251Z,101607.34
2022-10-22T19:40:42.413Z,101616.75
2022-10-22T19:43:09.576Z,101641.16
2022-10-22T19:45:40.880Z,101642.38
2022-10-22T19:48:08.071Z,101635.78
2022-10-22T19:50:35.463Z,101628.06
2022-10-22T19:53:02.755Z,101619.06
2022-10-22T19:55:29.909Z,101655.25
2022-10-22T20:00:55.930Z,101656.38
2022-10-22T20:03:25.534Z,101647.34
2022-10-22T20:05:54.543Z,101630.78
2022-10-22T20:09:08.998Z,101643.34
2022-10-22T20:11:45.576Z,101620.88
2022-10-22T20:14:16.212Z,101637.44
2022-10-22T20:16:51.367Z,101614.34
2022-10-22T20:20:12.690Z,101633.38
2022-10-22T20:27:57.688Z,101639.69
2022-10-22T20:30:24.736Z,101659.56
2022-10-22T20:32:51.810Z,101657.13
2022-10-22T20:35:20.640Z,101637.81
2022-10-22T20:40:26.913Z,101658.06
2022-10-22T20:42:54.003Z,101666.91
2022-10-22T20:45:23.601Z,101644.22
2022-10-22T20:47:51.721Z,101670.31
2022-10-22T20:50:29.950Z,101662.19
2022-10-22T20:52:57.153Z,101653.19
2022-10-22T20:55:26.887Z,101673.50
